Vremea acum in Ovidiu - Romania

Vrei sa afli care e starea vremii acum in Constanta - Romania? Dorim sa iti furnizam starea vremii pentru Constanta - Romania. Starea vremii Constanta - Romania pentru astazi.

Vremea acum in Ovidiu

Temperatura: 7.4 °C

Este: Senin
Se simte ca: 6 °C
Innorat: 0 %
Precipitatii: 0 %
Presiune atmosferica: 1015 hPa
Umiditate: 76%
Vizibilitate: 10 km
Vantul bate din S cu 7.9 km/h

Evolutia vremii in Ovidiu pe ore

Ora: 07:00
Senin
Temperatura: 10.6°C
Sansa de precipitatii: 0%
Ora Descriere Temp Se simte Precipitatii Umiditate Vant
00:00Senin10.3°8.7°0%81%SSW 12.2 KM/H
01:00Senin10°8.4°0%81%SSW 11.9 KM/H
02:00Senin9.8°8.3°0%79%SW 11.2 KM/H
03:00Senin9.7°8.4°0%77%SW 9.4 KM/H
04:00Senin9.7°8.7°0%74%SSW 7.9 KM/H
05:00Senin9.7°8.8°0%73%SSW 7.6 KM/H
06:00Senin7.4°8.7°0%76%S 7.9 KM/H
07:00Senin10.6°9.6°0%72%S 8.3 KM/H
08:00Senin12.1°11.3°0%68%SSE 9 KM/H
09:00Senin13.3°12.4°0%66%SSE 11.9 KM/H
10:00Senin14.2°13.2°0%64%SSE 14 KM/H
11:00Senin14.9°13.8°0%63%SSE 16.2 KM/H
12:00Senin15.2°15.2°0%63%SSE 16.9 KM/H
13:00Senin15.4°15.4°0%62%SE 17.6 KM/H
14:00Senin15.5°15.6°0%62%SE 18.4 KM/H
15:00Senin15.4°15.4°0%63%SE 19.1 KM/H
16:00Senin15.3°15.3°0%64%SE 18.7 KM/H
17:00Senin14.9°13.6°0%66%SE 18.7 KM/H
18:00Senin14.3°13°0%68%SSE 17.6 KM/H
19:00Senin13.5°12.1°0%73%SSE 15.8 KM/H
20:00Senin12.1°10.6°0%79%SSE 14 KM/H
21:00Senin11.4°9.8°0%81%SSE 13.3 KM/H
22:00Senin11.1°9.5°0%81%SSE 13.3 KM/H
23:00Senin10.9°9.3°0%82%SSE 13.3 KM/H




tutorials